sensor_id;sensor_type;location;lat;lon;timestamp;temperature;humidity
7216;DHT22;3649;48.798;9.798;2023-02-01T00:01:14;8.00;99.90
7216;DHT22;3649;48.798;9.798;2023-02-01T00:03:40;8.00;99.90
7216;DHT22;3649;48.798;9.798;2023-02-01T00:06:07;8.00;99.90
7216;DHT22;3649;48.798;9.798;2023-02-01T00:08:34;8.00;99.90
7216;DHT22;3649;48.798;9.798;2023-02-01T00:11:04;8.00;99.90
7216;DHT22;3649;48.798;9.798;2023-02-01T00:13:32;8.00;99.90
7216;DHT22;3649;48.798;9.798;2023-02-01T00:16:10;8.00;99.90
7216;DHT22;3649;48.798;9.798;2023-02-01T00:18:38;8.00;99.90
7216;DHT22;3649;48.798;9.798;2023-02-01T00:21:05;8.00;99.90
7216;DHT22;3649;48.798;9.798;2023-02-01T00:23:36;8.10;99.90
7216;DHT22;3649;48.798;9.798;2023-02-01T00:26:04;8.10;99.90
7216;DHT22;3649;48.798;9.798;2023-02-01T00:28:32;8.10;99.90
7216;DHT22;3649;48.798;9.798;2023-02-01T00:31:03;8.10;99.90
7216;DHT22;3649;48.798;9.798;2023-02-01T00:33:31;8.10;99.90
7216;DHT22;3649;48.798;9.798;2023-02-01T00:36:00;8.00;99.90
7216;DHT22;3649;48.798;9.798;2023-02-01T00:38:27;8.10;99.90
7216;DHT22;3649;48.798;9.798;2023-02-01T00:41:01;8.10;99.90
7216;DHT22;3649;48.798;9.798;2023-02-01T00:43:28;8.10;99.90
7216;DHT22;3649;48.798;9.798;2023-02-01T00:45:55;8.20;99.90
7216;DHT22;3649;48.798;9.798;2023-02-01T00:48:21;8.00;99.90
7216;DHT22;3649;48.798;9.798;2023-02-01T00:50:48;8.10;99.90
7216;DHT22;3649;48.798;9.798;2023-02-01T00:53:15;8.20;99.90
7216;DHT22;3649;48.798;9.798;2023-02-01T00:55:45;8.20;99.90
7216;DHT22;3649;48.798;9.798;2023-02-01T00:58:12;8.20;99.90
7216;DHT22;3649;48.798;9.798;2023-02-01T01:00:39;8.20;99.90
7216;DHT22;3649;48.798;9.798;2023-02-01T01:03:05;8.10;99.90
7216;DHT22;3649;48.798;9.798;2023-02-01T01:05:48;8.10;99.90
7216;DHT22;3649;48.798;9.798;2023-02-01T01:08:16;8.00;99.90
7216;DHT22;3649;48.798;9.798;2023-02-01T01:10:43;8.00;99.90
7216;DHT22;3649;48.798;9.798;2023-02-01T01:13:10;8.00;99.90
7216;DHT22;3649;48.798;9.798;2023-02-01T01:15:38;9.00;99.90
7216;DHT22;3649;48.798;9.798;2023-02-01T01:18:05;8.00;99.90
7216;DHT22;3649;48.798;9.798;2023-02-01T01:20:37;8.00;99.90
7216;DHT22;3649;48.798;9.798;2023-02-01T01:23:04;8.00;99.90
7216;DHT22;3649;48.798;9.798;2023-02-01T01:25:31;8.00;99.90
7216;DHT22;3649;48.798;9.798;2023-02-01T01:27:58;8.00;99.90
7216;DHT22;3649;48.798;9.798;2023-02-01T01:30:25;8.00;99.90
7216;DHT22;3649;48.798;9.798;2023-02-01T01:32:52;8.00;99.90
7216;DHT22;3649;48.798;9.798;2023-02-01T01:35:18;8.00;99.90
7216;DHT22;3649;48.798;9.798;2023-02-01T01:37:45;8.10;99.90
7216;DHT22;3649;48.798;9.798;2023-02-01T01:40:12;8.00;99.90
7216;DHT22;3649;48.798;9.798;2023-02-01T01:42:41;8.00;99.90
7216;DHT22;3649;48.798;9.798;2023-02-01T01:45:21;8.00;99.90
7216;DHT22;3649;48.798;9.798;2023-02-01T01:47:52;8.00;99.90
7216;DHT22;3649;48.798;9.798;2023-02-01T01:50:22;8.00;99.90
7216;DHT22;3649;48.798;9.798;2023-02-01T01:52:52;8.00;99.90
7216;DHT22;3649;48.798;9.798;2023-02-01T01:55:20;8.00;99.90
7216;DHT22;3649;48.798;9.798;2023-02-01T01:57:54;9.60;99.90
7216;DHT22;3649;48.798;9.798;2023-02-01T02:00:22;8.00;99.90
7216;DHT22;3649;48.798;9.798;2023-02-01T02:02:54;8.00;99.90
7216;DHT22;3649;48.798;9.798;2023-02-01T02:05:22;8.10;99.90
7216;DHT22;3649;48.798;9.798;2023-02-01T02:07:50;8.10;99.90
7216;DHT22;3649;48.798;9.798;2023-02-01T02:10:19;8.00;99.90
7216;DHT22;3649;48.798;9.798;2023-02-01T02:12:48;8.00;99.90
7216;DHT22;3649;48.798;9.798;2023-02-01T02:15:16;8.00;99.90
7216;DHT22;3649;48.798;9.798;2023-02-01T02:18:00;8.00;99.90
7216;DHT22;3649;48.798;9.798;2023-02-01T02:21:17;8.00;99.90
7216;DHT22;3649;48.798;9.798;2023-02-01T02:32:05;8.00;99.90
7216;DHT22;3649;48.798;9.798;2023-02-01T02:34:52;8.00;99.90
7216;DHT22;3649;48.798;9.798;2023-02-01T02:40:25;8.00;99.90
7216;DHT22;3649;48.798;9.798;2023-02-01T02:46:04;8.00;99.90
7216;DHT22;3649;48.798;9.798;2023-02-01T02:49:05;8.00;99.90
7216;DHT22;3649;48.798;9.798;2023-02-01T02:51:46;8.00;99.90
7216;DHT22;3649;48.798;9.798;2023-02-01T02:54:36;8.00;99.90
7216;DHT22;3649;48.798;9.798;2023-02-01T02:57:35;8.10;99.90
7216;DHT22;3649;48.798;9.798;2023-02-01T03:00:27;8.10;99.90
7216;DHT22;3649;48.798;9.798;2023-02-01T03:03:13;8.10;99.90
7216;DHT22;3649;48.798;9.798;2023-02-01T03:05:59;8.10;99.90
7216;DHT22;3649;48.798;9.798;2023-02-01T03:08:28;8.20;99.90
7216;DHT22;3649;48.798;9.798;2023-02-01T03:13:53;8.10;99.90
7216;DHT22;3649;48.798;9.798;2023-02-01T03:16:24;8.10;99.90
7216;DHT22;3649;48.798;9.798;2023-02-01T03:21:31;8.10;99.90
7216;DHT22;3649;48.798;9.798;2023-02-01T03:24:03;8.10;99.90
7216;DHT22;3649;48.798;9.798;2023-02-01T03:26:34;8.10;99.90
7216;DHT22;3649;48.798;9.798;2023-02-01T03:29:17;8.10;99.90
7216;DHT22;3649;48.798;9.798;2023-02-01T03:31:45;8.10;99.90
7216;DHT22;3649;48.798;9.798;2023-02-01T03:34:12;8.00;99.90
7216;DHT22;3649;48.798;9.798;2023-02-01T03:36:48;8.10;99.90
7216;DHT22;3649;48.798;9.798;2023-02-01T03:39:36;8.10;99.90
7216;DHT22;3649;48.798;9.798;2023-02-01T03:42:07;8.00;99.90
7216;DHT22;3649;48.798;9.798;2023-02-01T03:47:25;8.00;99.90
7216;DHT22;3649;48.798;9.798;2023-02-01T03:49:58;8.00;99.90
7216;DHT22;3649;48.798;9.798;2023-02-01T03:52:41;8.00;99.90
7216;DHT22;3649;48.798;9.798;2023-02-01T03:55:09;7.90;99.90
7216;DHT22;3649;48.798;9.798;2023-02-01T03:57:41;7.90;99.90
7216;DHT22;3649;48.798;9.798;2023-02-01T04:00:19;8.00;99.90
7216;DHT22;3649;48.798;9.798;2023-02-01T04:02:48;8.00;99.90
7216;DHT22;3649;48.798;9.798;2023-02-01T04:05:15;8.00;99.90
7216;DHT22;3649;48.798;9.798;2023-02-01T04:07:42;8.10;99.90
7216;DHT22;3649;48.798;9.798;2023-02-01T04:10:10;8.10;99.90
7216;DHT22;3649;48.798;9.798;2023-02-01T04:12:37;8.10;99.90
7216;DHT22;3649;48.798;9.798;2023-02-01T04:15:04;8.10;99.90
7216;DHT22;3649;48.798;9.798;2023-02-01T04:17:31;8.10;99.90
7216;DHT22;3649;48.798;9.798;2023-02-01T04:19:58;8.10;99.90
7216;DHT22;3649;48.798;9.798;2023-02-01T04:22:25;8.10;99.90
7216;DHT22;3649;48.798;9.798;2023-02-01T04:24:51;8.10;99.90
7216;DHT22;3649;48.798;9.798;2023-02-01T04:27:18;8.10;99.90
7216;DHT22;3649;48.798;9.798;2023-02-01T04:29:45;8.10;99.90
7216;DHT22;3649;48.798;9.798;2023-02-01T04:32:12;7.70;99.90
7216;DHT22;3649;48.798;9.798;2023-02-01T04:34:38;8.20;99.90
7216;DHT22;3649;48.798;9.798;2023-02-01T04:37:05;8.20;99.90
7216;DHT22;3649;48.798;9.798;2023-02-01T04:39:32;8.20;99.90
7216;DHT22;3649;48.798;9.798;2023-02-01T04:41:59;8.20;99.90
7216;DHT22;3649;48.798;9.798;2023-02-01T04:44:26;8.30;99.90
7216;DHT22;3649;48.798;9.798;2023-02-01T04:46:52;8.20;99.90
7216;DHT22;3649;48.798;9.798;2023-02-01T04:49:19;8.20;99.90
7216;DHT22;3649;48.798;9.798;2023-02-01T04:51:47;8.20;99.90
7216;DHT22;3649;48.798;9.798;2023-02-01T04:54:14;8.30;99.90
7216;DHT22;3649;48.798;9.798;2023-02-01T04:56:41;8.30;99.90
7216;DHT22;3649;48.798;9.798;2023-02-01T04:59:11;8.30;99.90
7216;DHT22;3649;48.798;9.798;2023-02-01T05:01:38;8.30;99.90
7216;DHT22;3649;48.798;9.798;2023-02-01T05:04:05;8.20;99.90
7216;DHT22;3649;48.798;9.798;2023-02-01T05:06:31;8.30;99.90
7216;DHT22;3649;48.798;9.798;2023-02-01T05:08:58;8.30;99.90
7216;DHT22;3649;48.798;9.798;2023-02-01T05:11:25;8.30;99.90
7216;DHT22;3649;48.798;9.798;2023-02-01T05:14:11;8.30;99.90
7216;DHT22;3649;48.798;9.798;2023-02-01T05:16:37;8.20;99.90
7216;DHT22;3649;48.798;9.798;2023-02-01T05:19:04;8.20;99.90
7216;DHT22;3649;48.798;9.798;2023-02-01T05:21:31;9.80;99.90
7216;DHT22;3649;48.798;9.798;2023-02-01T05:23:58;8.20;99.90
7216;DHT22;3649;48.798;9.798;2023-02-01T05:26:42;8.30;99.90
7216;DHT22;3649;48.798;9.798;2023-02-01T05:29:10;8.30;99.90
7216;DHT22;3649;48.798;9.798;2023-02-01T05:31:37;8.30;99.90
7216;DHT22;3649;48.798;9.798;2023-02-01T05:34:04;8.30;99.90
7216;DHT22;3649;48.798;9.798;2023-02-01T05:36:32;8.30;99.90
7216;DHT22;3649;48.798;9.798;2023-02-01T05:38:59;9.90;99.90
7216;DHT22;3649;48.798;9.798;2023-02-01T05:41:25;8.30;99.90
7216;DHT22;3649;48.798;9.798;2023-02-01T05:43:52;8.30;99.90
7216;DHT22;3649;48.798;9.798;2023-02-01T05:46:19;8.30;99.90
7216;DHT22;3649;48.798;9.798;2023-02-01T05:48:46;9.00;99.90
7216;DHT22;3649;48.798;9.798;2023-02-01T05:51:13;8.40;99.90
7216;DHT22;3649;48.798;9.798;2023-02-01T05:53:40;8.40;99.90
7216;DHT22;3649;48.798;9.798;2023-02-01T05:56:07;8.40;99.90
7216;DHT22;3649;48.798;9.798;2023-02-01T05:58:34;8.40;99.90
7216;DHT22;3649;48.798;9.798;2023-02-01T06:01:02;8.40;99.90
7216;DHT22;3649;48.798;9.798;2023-02-01T06:03:29;8.50;99.90
7216;DHT22;3649;48.798;9.798;2023-02-01T06:05:56;8.50;99.90
7216;DHT22;3649;48.798;9.798;2023-02-01T06:08:23;8.50;99.90
7216;DHT22;3649;48.798;9.798;2023-02-01T06:11:06;8.50;99.90
7216;DHT22;3649;48.798;9.798;2023-02-01T06:13:33;8.50;99.90
7216;DHT22;3649;48.798;9.798;2023-02-01T06:16:02;8.50;99.90
7216;DHT22;3649;48.798;9.798;2023-02-01T06:18:29;8.50;99.90
7216;DHT22;3649;48.798;9.798;2023-02-01T06:20:58;8.40;99.90
7216;DHT22;3649;48.798;9.798;2023-02-01T06:23:29;8.40;99.90
7216;DHT22;3649;48.798;9.798;2023-02-01T06:26:02;8.40;99.90
7216;DHT22;3649;48.798;9.798;2023-02-01T06:28:30;8.40;99.90
7216;DHT22;3649;48.798;9.798;2023-02-01T06:30:58;8.40;99.90
7216;DHT22;3649;48.798;9.798;2023-02-01T06:33:25;8.50;99.90
7216;DHT22;3649;48.798;9.798;2023-02-01T06:35:59;8.40;99.90
7216;DHT22;3649;48.798;9.798;2023-02-01T06:38:27;8.40;99.90
7216;DHT22;3649;48.798;9.798;2023-02-01T06:40:55;8.40;99.90
7216;DHT22;3649;48.798;9.798;2023-02-01T06:43:23;8.40;99.90
7216;DHT22;3649;48.798;9.798;2023-02-01T06:45:51;8.40;99.90
7216;DHT22;3649;48.798;9.798;2023-02-01T06:48:18;8.40;99.90
7216;DHT22;3649;48.798;9.798;2023-02-01T06:50:45;8.40;99.90
7216;DHT22;3649;48.798;9.798;2023-02-01T06:53:12;9.30;99.90
7216;DHT22;3649;48.798;9.798;2023-02-01T06:55:38;8.40;99.90
7216;DHT22;3649;48.798;9.798;2023-02-01T06:58:05;8.30;99.90
7216;DHT22;3649;48.798;9.798;2023-02-01T07:00:32;8.30;99.90
7216;DHT22;3649;48.798;9.798;2023-02-01T07:02:59;8.30;99.90
7216;DHT22;3649;48.798;9.798;2023-02-01T07:05:26;8.30;99.90
7216;DHT22;3649;48.798;9.798;2023-02-01T07:07:53;8.30;99.90
7216;DHT22;3649;48.798;9.798;2023-02-01T07:10:20;8.30;99.90
7216;DHT22;3649;48.798;9.798;2023-02-01T07:12:47;8.40;99.90
7216;DHT22;3649;48.798;9.798;2023-02-01T07:15:14;8.30;99.90
7216;DHT22;3649;48.798;9.798;2023-02-01T07:17:41;8.40;99.90
7216;DHT22;3649;48.798;9.798;2023-02-01T07:20:08;8.40;99.90
7216;DHT22;3649;48.798;9.798;2023-02-01T07:22:35;8.40;99.90
7216;DHT22;3649;48.798;9.798;2023-02-01T07:25:03;8.30;99.90
7216;DHT22;3649;48.798;9.798;2023-02-01T07:27:34;8.30;99.90
7216;DHT22;3649;48.798;9.798;2023-02-01T07:30:02;8.30;99.90
7216;DHT22;3649;48.798;9.798;2023-02-01T07:32:29;8.30;99.90
7216;DHT22;3649;48.798;9.798;2023-02-01T07:34:58;8.40;99.90
7216;DHT22;3649;48.798;9.798;2023-02-01T07:37:25;8.40;99.90
7216;DHT22;3649;48.798;9.798;2023-02-01T07:40:09;8.40;99.90
7216;DHT22;3649;48.798;9.798;2023-02-01T07:42:36;8.40;99.90
7216;DHT22;3649;48.798;9.798;2023-02-01T07:45:03;8.50;99.90
7216;DHT22;3649;48.798;9.798;2023-02-01T07:47:46;8.50;99.90
7216;DHT22;3649;48.798;9.798;2023-02-01T07:50:13;8.50;99.90
7216;DHT22;3649;48.798;9.798;2023-02-01T07:52:39;8.50;99.90
7216;DHT22;3649;48.798;9.798;2023-02-01T07:55:07;8.40;99.90
7216;DHT22;3649;48.798;9.798;2023-02-01T07:57:34;8.40;99.90
7216;DHT22;3649;48.798;9.798;2023-02-01T08:00:02;8.40;99.90
7216;DHT22;3649;48.798;9.798;2023-02-01T08:02:52;8.40;99.90
7216;DHT22;3649;48.798;9.798;2023-02-01T08:05:19;8.40;99.90
7216;DHT22;3649;48.798;9.798;2023-02-01T08:07:49;8.40;99.90
7216;DHT22;3649;48.798;9.798;2023-02-01T08:10:17;8.30;99.90
7216;DHT22;3649;48.798;9.798;2023-02-01T08:12:45;8.30;99.90
7216;DHT22;3649;48.798;9.798;2023-02-01T08:15:18;8.30;99.90
7216;DHT22;3649;48.798;9.798;2023-02-01T08:17:49;8.30;99.90
7216;DHT22;3649;48.798;9.798;2023-02-01T08:20:17;8.30;99.90
7216;DHT22;3649;48.798;9.798;2023-02-01T08:22:45;8.30;99.90
7216;DHT22;3649;48.798;9.798;2023-02-01T08:25:11;8.40;99.90
7216;DHT22;3649;48.798;9.798;2023-02-01T08:27:39;8.40;99.90
7216;DHT22;3649;48.798;9.798;2023-02-01T08:30:07;8.40;99.90
7216;DHT22;3649;48.798;9.798;2023-02-01T08:32:34;8.40;99.90
7216;DHT22;3649;48.798;9.798;2023-02-01T08:35:03;8.30;99.90
7216;DHT22;3649;48.798;9.798;2023-02-01T08:37:30;8.30;99.90
7216;DHT22;3649;48.798;9.798;2023-02-01T08:39:57;8.30;99.90
7216;DHT22;3649;48.798;9.798;2023-02-01T08:42:24;8.30;99.90
7216;DHT22;3649;48.798;9.798;2023-02-01T08:45:10;8.40;99.90
7216;DHT22;3649;48.798;9.798;2023-02-01T08:47:37;8.40;99.90
7216;DHT22;3649;48.798;9.798;2023-02-01T08:50:04;8.30;99.90
7216;DHT22;3649;48.798;9.798;2023-02-01T08:52:33;8.30;99.90
7216;DHT22;3649;48.798;9.798;2023-02-01T08:55:04;8.30;99.90
7216;DHT22;3649;48.798;9.798;2023-02-01T08:57:33;8.30;99.90
7216;DHT22;3649;48.798;9.798;2023-02-01T09:00:01;8.50;99.90
7216;DHT22;3649;48.798;9.798;2023-02-01T09:02:28;8.30;99.90
7216;DHT22;3649;48.798;9.798;2023-02-01T09:04:56;8.30;99.90
7216;DHT22;3649;48.798;9.798;2023-02-01T09:07:23;8.30;99.90
7216;DHT22;3649;48.798;9.798;2023-02-01T09:09:50;8.30;99.90
7216;DHT22;3649;48.798;9.798;2023-02-01T09:12:17;8.30;99.90
7216;DHT22;3649;48.798;9.798;2023-02-01T09:14:43;8.30;99.90
7216;DHT22;3649;48.798;9.798;2023-02-01T09:17:11;8.40;99.90
7216;DHT22;3649;48.798;9.798;2023-02-01T09:19:40;8.40;99.90
7216;DHT22;3649;48.798;9.798;2023-02-01T09:22:08;8.50;99.90
7216;DHT22;3649;48.798;9.798;2023-02-01T09:24:35;8.50;99.90
7216;DHT22;3649;48.798;9.798;2023-02-01T09:27:02;8.50;99.90
7216;DHT22;3649;48.798;9.798;2023-02-01T09:29:32;8.60;99.90
7216;DHT22;3649;48.798;9.798;2023-02-01T09:31:59;8.60;99.90
7216;DHT22;3649;48.798;9.798;2023-02-01T09:34:30;8.80;99.90
7216;DHT22;3649;48.798;9.798;2023-02-01T09:36:57;8.60;99.90
7216;DHT22;3649;48.798;9.798;2023-02-01T09:39:24;8.60;99.90
7216;DHT22;3649;48.798;9.798;2023-02-01T09:47:35;8.60;99.90
7216;DHT22;3649;48.798;9.798;2023-02-01T09:50:34;8.60;99.90
7216;DHT22;3649;48.798;9.798;2023-02-01T09:55:42;8.60;99.90
7216;DHT22;3649;48.798;9.798;2023-02-01T09:58:22;8.60;99.90
7216;DHT22;3649;48.798;9.798;2023-02-01T10:00:57;8.50;99.90
7216;DHT22;3649;48.798;9.798;2023-02-01T10:03:29;8.40;99.90
7216;DHT22;3649;48.798;9.798;2023-02-01T10:06:48;8.40;99.90
7216;DHT22;3649;48.798;9.798;2023-02-01T10:24:42;8.30;99.90
7216;DHT22;3649;48.798;9.798;2023-02-01T10:27:21;8.30;99.90
7216;DHT22;3649;48.798;9.798;2023-02-01T10:29:56;8.30;99.90
7216;DHT22;3649;48.798;9.798;2023-02-01T10:32:34;8.30;99.90
7216;DHT22;3649;48.798;9.798;2023-02-01T10:35:15;8.40;99.90
7216;DHT22;3649;48.798;9.798;2023-02-01T10:37:44;8.40;99.90
7216;DHT22;3649;48.798;9.798;2023-02-01T10:40:23;7.90;99.90
7216;DHT22;3649;48.798;9.798;2023-02-01T10:42:57;8.50;99.90
7216;DHT22;3649;48.798;9.798;2023-02-01T10:45:27;8.50;99.90
7216;DHT22;3649;48.798;9.798;2023-02-01T10:47:57;8.50;99.90
7216;DHT22;3649;48.798;9.798;2023-02-01T10:50:46;8.60;99.90
7216;DHT22;3649;48.798;9.798;2023-02-01T10:53:18;8.50;99.90
7216;DHT22;3649;48.798;9.798;2023-02-01T10:55:49;8.60;99.90
7216;DHT22;3649;48.798;9.798;2023-02-01T10:58:31;8.60;99.90
7216;DHT22;3649;48.798;9.798;2023-02-01T11:01:03;8.70;99.90
7216;DHT22;3649;48.798;9.798;2023-02-01T11:03:51;8.70;99.90
7216;DHT22;3649;48.798;9.798;2023-02-01T11:06:33;8.80;99.90
7216;DHT22;3649;48.798;9.798;2023-02-01T11:09:10;8.80;99.90
7216;DHT22;3649;48.798;9.798;2023-02-01T11:14:18;8.70;99.90
7216;DHT22;3649;48.798;9.798;2023-02-01T11:16:54;8.70;99.90
7216;DHT22;3649;48.798;9.798;2023-02-01T11:19:21;8.70;99.90
7216;DHT22;3649;48.798;9.798;2023-02-01T11:21:53;8.70;99.90
7216;DHT22;3649;48.798;9.798;2023-02-01T11:24:24;8.70;99.90
7216;DHT22;3649;48.798;9.798;2023-02-01T11:26:56;8.70;99.90
7216;DHT22;3649;48.798;9.798;2023-02-01T11:29:25;8.70;99.90
7216;DHT22;3649;48.798;9.798;2023-02-01T11:31:57;8.80;99.90
7216;DHT22;3649;48.798;9.798;2023-02-01T11:34:33;8.80;99.90
7216;DHT22;3649;48.798;9.798;2023-02-01T11:37:02;8.70;99.90
7216;DHT22;3649;48.798;9.798;2023-02-01T11:39:34;8.60;99.90
7216;DHT22;3649;48.798;9.798;2023-02-01T11:42:19;8.60;99.90
7216;DHT22;3649;48.798;9.798;2023-02-01T11:44:47;8.70;99.90
7216;DHT22;3649;48.798;9.798;2023-02-01T11:47:31;8.70;99.90
7216;DHT22;3649;48.798;9.798;2023-02-01T11:50:16;8.70;99.90
7216;DHT22;3649;48.798;9.798;2023-02-01T12:03:50;8.70;99.90
7216;DHT22;3649;48.798;9.798;2023-02-01T12:09:23;8.70;99.90
7216;DHT22;3649;48.798;9.798;2023-02-01T12:12:06;8.70;99.90
7216;DHT22;3649;48.798;9.798;2023-02-01T12:29:28;8.90;99.90
7216;DHT22;3649;48.798;9.798;2023-02-01T12:37:53;9.00;99.90
7216;DHT22;3649;48.798;9.798;2023-02-01T12:46:13;9.00;99.90
7216;DHT22;3649;48.798;9.798;2023-02-01T12:48:58;9.00;99.90
7216;DHT22;3649;48.798;9.798;2023-02-01T12:51:31;9.00;99.90
7216;DHT22;3649;48.798;9.798;2023-02-01T12:56:59;9.00;99.90
7216;DHT22;3649;48.798;9.798;2023-02-01T12:59:48;9.00;99.90
7216;DHT22;3649;48.798;9.798;2023-02-01T13:05:22;9.00;99.90
7216;DHT22;3649;48.798;9.798;2023-02-01T13:08:17;9.00;99.90
7216;DHT22;3649;48.798;9.798;2023-02-01T13:10:47;9.00;99.90
7216;DHT22;3649;48.798;9.798;2023-02-01T13:13:52;9.10;99.90
7216;DHT22;3649;48.798;9.798;2023-02-01T13:16:34;9.10;99.90
7216;DHT22;3649;48.798;9.798;2023-02-01T13:22:10;9.20;99.90
7216;DHT22;3649;48.798;9.798;2023-02-01T13:24:45;9.30;99.90
7216;DHT22;3649;48.798;9.798;2023-02-01T13:27:15;9.20;99.90
7216;DHT22;3649;48.798;9.798;2023-02-01T13:38:41;9.20;99.90
7216;DHT22;3649;48.798;9.798;2023-02-01T13:41:29;9.10;99.90
7216;DHT22;3649;48.798;9.798;2023-02-01T13:44:04;9.10;99.90
7216;DHT22;3649;48.798;9.798;2023-02-01T13:46:44;9.10;99.90
7216;DHT22;3649;48.798;9.798;2023-02-01T13:49:28;9.00;99.90
7216;DHT22;3649;48.798;9.798;2023-02-01T13:51:57;9.10;99.90
7216;DHT22;3649;48.798;9.798;2023-02-01T13:54:38;8.90;99.90
7216;DHT22;3649;48.798;9.798;2023-02-01T13:57:36;8.90;99.90
7216;DHT22;3649;48.798;9.798;2023-02-01T14:10:56;9.00;99.90
7216;DHT22;3649;48.798;9.798;2023-02-01T14:13:40;9.00;99.90
7216;DHT22;3649;48.798;9.798;2023-02-01T14:16:12;9.00;99.90
7216;DHT22;3649;48.798;9.798;2023-02-01T14:21:27;9.00;99.90
7216;DHT22;3649;48.798;9.798;2023-02-01T14:26:45;9.00;99.90
7216;DHT22;3649;48.798;9.798;2023-02-01T14:32:11;9.10;99.90
7216;DHT22;3649;48.798;9.798;2023-02-01T14:42:31;9.10;99.90
7216;DHT22;3649;48.798;9.798;2023-02-01T14:47:46;9.00;99.90
7216;DHT22;3649;48.798;9.798;2023-02-01T14:55:44;8.90;99.90
7216;DHT22;3649;48.798;9.798;2023-02-01T14:58:44;8.90;99.90
7216;DHT22;3649;48.798;9.798;2023-02-01T15:01:52;9.00;99.90
7216;DHT22;3649;48.798;9.798;2023-02-01T15:04:20;9.00;99.90
7216;DHT22;3649;48.798;9.798;2023-02-01T15:06:54;9.10;99.90
7216;DHT22;3649;48.798;9.798;2023-02-01T15:09:29;8.90;99.90
7216;DHT22;3649;48.798;9.798;2023-02-01T15:12:02;9.00;99.90
7216;DHT22;3649;48.798;9.798;2023-02-01T15:14:32;9.00;99.90
7216;DHT22;3649;48.798;9.798;2023-02-01T15:16:59;9.00;99.90
7216;DHT22;3649;48.798;9.798;2023-02-01T15:19:28;9.00;99.90
7216;DHT22;3649;48.798;9.798;2023-02-01T15:21:58;9.10;99.90
7216;DHT22;3649;48.798;9.798;2023-02-01T15:24:27;9.10;99.90
7216;DHT22;3649;48.798;9.798;2023-02-01T15:26:55;9.10;99.90
7216;DHT22;3649;48.798;9.798;2023-02-01T15:29:24;9.10;99.90
7216;DHT22;3649;48.798;9.798;2023-02-01T15:32:02;9.10;99.90
7216;DHT22;3649;48.798;9.798;2023-02-01T15:35:01;9.10;99.90
7216;DHT22;3649;48.798;9.798;2023-02-01T15:37:29;9.10;99.90
7216;DHT22;3649;48.798;9.798;2023-02-01T15:40:14;9.10;99.90
7216;DHT22;3649;48.798;9.798;2023-02-01T15:42:55;9.00;99.90
7216;DHT22;3649;48.798;9.798;2023-02-01T15:45:27;9.00;99.90
7216;DHT22;3649;48.798;9.798;2023-02-01T15:47:56;9.00;99.90
7216;DHT22;3649;48.798;9.798;2023-02-01T15:50:24;9.00;99.90
7216;DHT22;3649;48.798;9.798;2023-02-01T15:52:55;9.10;99.90
7216;DHT22;3649;48.798;9.798;2023-02-01T15:55:38;9.00;99.90
7216;DHT22;3649;48.798;9.798;2023-02-01T15:58:35;9.10;99.90
7216;DHT22;3649;48.798;9.798;2023-02-01T16:01:04;9.10;99.90
7216;DHT22;3649;48.798;9.798;2023-02-01T16:03:46;8.70;99.90
7216;DHT22;3649;48.798;9.798;2023-02-01T16:08:54;9.50;99.90
7216;DHT22;3649;48.798;9.798;2023-02-01T16:11:32;9.10;99.90
7216;DHT22;3649;48.798;9.798;2023-02-01T16:14:00;9.10;99.90
7216;DHT22;3649;48.798;9.798;2023-02-01T16:16:28;9.10;99.90
7216;DHT22;3649;48.798;9.798;2023-02-01T16:18:55;9.40;99.90
7216;DHT22;3649;48.798;9.798;2023-02-01T16:21:22;9.20;99.90
7216;DHT22;3649;48.798;9.798;2023-02-01T16:23:50;9.20;99.90
7216;DHT22;3649;48.798;9.798;2023-02-01T16:26:19;9.30;99.90
7216;DHT22;3649;48.798;9.798;2023-02-01T16:28:46;9.20;99.90
7216;DHT22;3649;48.798;9.798;2023-02-01T16:31:15;9.30;99.90
7216;DHT22;3649;48.798;9.798;2023-02-01T16:33:50;9.30;99.90
7216;DHT22;3649;48.798;9.798;2023-02-01T16:36:17;9.20;99.90
7216;DHT22;3649;48.798;9.798;2023-02-01T16:38:45;9.20;99.90
7216;DHT22;3649;48.798;9.798;2023-02-01T16:41:16;9.20;99.90
7216;DHT22;3649;48.798;9.798;2023-02-01T16:43:43;9.20;99.90
7216;DHT22;3649;48.798;9.798;2023-02-01T16:46:15;9.20;99.90
7216;DHT22;3649;48.798;9.798;2023-02-01T16:48:52;9.20;99.90
7216;DHT22;3649;48.798;9.798;2023-02-01T16:51:20;9.20;99.90
7216;DHT22;3649;48.798;9.798;2023-02-01T16:53:47;9.20;99.90
7216;DHT22;3649;48.798;9.798;2023-02-01T16:56:23;9.10;99.90
7216;DHT22;3649;48.798;9.798;2023-02-01T16:58:50;9.20;99.90
7216;DHT22;3649;48.798;9.798;2023-02-01T17:01:18;9.20;99.90
7216;DHT22;3649;48.798;9.798;2023-02-01T17:03:45;9.10;99.90
7216;DHT22;3649;48.798;9.798;2023-02-01T17:06:19;9.10;99.90
7216;DHT22;3649;48.798;9.798;2023-02-01T17:08:50;9.10;99.90
7216;DHT22;3649;48.798;9.798;2023-02-01T17:11:18;9.10;99.90
7216;DHT22;3649;48.798;9.798;2023-02-01T17:13:45;9.10;99.90
7216;DHT22;3649;48.798;9.798;2023-02-01T17:18:53;9.00;99.90
7216;DHT22;3649;48.798;9.798;2023-02-01T17:21:21;9.00;99.90
7216;DHT22;3649;48.798;9.798;2023-02-01T17:23:48;9.00;99.90
7216;DHT22;3649;48.798;9.798;2023-02-01T17:26:15;9.00;99.90
7216;DHT22;3649;48.798;9.798;2023-02-01T17:28:42;9.00;99.90
7216;DHT22;3649;48.798;9.798;2023-02-01T17:31:12;9.00;99.90
7216;DHT22;3649;48.798;9.798;2023-02-01T17:33:43;9.80;99.90
7216;DHT22;3649;48.798;9.798;2023-02-01T17:36:15;9.00;99.90
7216;DHT22;3649;48.798;9.798;2023-02-01T17:38:43;9.20;99.90
7216;DHT22;3649;48.798;9.798;2023-02-01T17:41:19;9.00;99.90
7216;DHT22;3649;48.798;9.798;2023-02-01T17:43:46;9.00;99.90
7216;DHT22;3649;48.798;9.798;2023-02-01T17:46:16;9.00;99.90
7216;DHT22;3649;48.798;9.798;2023-02-01T17:48:44;9.10;99.90
7216;DHT22;3649;48.798;9.798;2023-02-01T17:51:19;9.00;99.90
7216;DHT22;3649;48.798;9.798;2023-02-01T17:53:46;9.60;99.90
7216;DHT22;3649;48.798;9.798;2023-02-01T17:56:15;9.00;99.90
7216;DHT22;3649;48.798;9.798;2023-02-01T17:58:43;9.00;99.90
7216;DHT22;3649;48.798;9.798;2023-02-01T18:01:17;9.00;99.90
7216;DHT22;3649;48.798;9.798;2023-02-01T18:03:45;9.00;99.90
7216;DHT22;3649;48.798;9.798;2023-02-01T18:06:16;9.00;99.90
7216;DHT22;3649;48.798;9.798;2023-02-01T18:08:44;9.00;99.90
7216;DHT22;3649;48.798;9.798;2023-02-01T18:11:16;9.00;99.90
7216;DHT22;3649;48.798;9.798;2023-02-01T18:13:44;9.00;99.90
7216;DHT22;3649;48.798;9.798;2023-02-01T18:16:21;10.70;99.90
7216;DHT22;3649;48.798;9.798;2023-02-01T18:18:49;8.90;99.90
7216;DHT22;3649;48.798;9.798;2023-02-01T18:21:18;8.90;99.90
7216;DHT22;3649;48.798;9.798;2023-02-01T18:23:45;8.90;99.90
7216;DHT22;3649;48.798;9.798;2023-02-01T18:26:14;8.90;99.90
7216;DHT22;3649;48.798;9.798;2023-02-01T18:28:41;8.80;99.90
7216;DHT22;3649;48.798;9.798;2023-02-01T18:31:23;8.90;99.90
7216;DHT22;3649;48.798;9.798;2023-02-01T18:33:53;8.80;99.90
7216;DHT22;3649;48.798;9.798;2023-02-01T18:36:20;8.80;99.90
7216;DHT22;3649;48.798;9.798;2023-02-01T18:38:48;8.90;99.90
7216;DHT22;3649;48.798;9.798;2023-02-01T18:41:17;8.90;99.90
7216;DHT22;3649;48.798;9.798;2023-02-01T18:43:47;8.90;99.90
7216;DHT22;3649;48.798;9.798;2023-02-01T18:46:17;8.90;99.90
7216;DHT22;3649;48.798;9.798;2023-02-01T18:48:47;8.90;99.90
7216;DHT22;3649;48.798;9.798;2023-02-01T18:51:18;8.90;99.90
7216;DHT22;3649;48.798;9.798;2023-02-01T18:53:46;8.90;99.90
7216;DHT22;3649;48.798;9.798;2023-02-01T18:56:15;8.90;99.90
7216;DHT22;3649;48.798;9.798;2023-02-01T18:58:44;9.00;99.90
7216;DHT22;3649;48.798;9.798;2023-02-01T19:01:15;8.80;99.90
7216;DHT22;3649;48.798;9.798;2023-02-01T19:03:42;8.80;99.90
7216;DHT22;3649;48.798;9.798;2023-02-01T19:06:19;8.80;99.90
7216;DHT22;3649;48.798;9.798;2023-02-01T19:08:46;8.80;99.90
7216;DHT22;3649;48.798;9.798;2023-02-01T19:11:13;8.70;99.90
7216;DHT22;3649;48.798;9.798;2023-02-01T19:13:40;8.80;99.90